Time;durP1;ratioP1;P1;durP2;ratioP2;P2;SDS_P1;SDS_P2;PMS_P1;PMS_P2;Temp;Humidity;BMP_temperature;BMP_pressure;BME280_temperature;BME280_humidity;BME280_pressure;Samples;Min_cycle;Max_cycle;Signal;HPM_P1;HPM_P2
2023/09/24 00:02:18;;;;;;;15.55;6.80;;;;;;;-145.63;31.49;38918.66;5026557;28;20025;-63
2023/09/24 00:04:43;;;;;;;11.68;6.65;;;;;;;-145.63;31.24;38934.28;5026499;28;20022;-63
2023/09/24 00:07:10;;;;;;;9.43;6.05;;;;;;;-145.63;31.49;38938.19;5011532;28;20081;-63
2023/09/24 00:09:36;;;;;;;12.07;7.10;;;;;;;-145.63;31.70;38932.34;5006659;28;20211;-62
2023/09/24 00:12:02;;;;;;;9.95;5.82;;;;;;;-145.63;32.32;38936.25;5011931;28;20389;-64
2023/09/24 00:14:28;;;;;;;14.65;7.03;;;;;;;-145.63;32.55;38983.19;5025324;28;20022;-64
2023/09/24 00:16:54;;;;;;;12.95;6.03;;;;;;;-145.63;32.23;38969.50;5005736;28;20029;-63
2023/09/24 00:19:20;;;;;;;11.93;6.88;;;;;;;-145.63;32.97;38991.00;5022184;28;20084;-64
2023/09/24 00:21:49;;;;;;;10.82;6.50;;;;;;;-145.63;33.03;38961.66;5025921;28;20030;-63
2023/09/24 00:24:17;;;;;;;11.00;6.70;;;;;;;-145.63;33.19;38953.84;5015815;28;20026;-63
2023/09/24 00:26:45;;;;;;;19.63;7.00;;;;;;;-145.63;32.57;38957.75;5023372;28;20210;-61
2023/09/24 00:29:10;;;;;;;15.10;6.90;;;;;;;-145.63;33.10;38983.19;5006285;28;20085;-62
2023/09/24 00:31:36;;;;;;;15.18;7.13;;;;;;;-145.63;32.29;38969.50;5023976;28;20307;-63
2023/09/24 00:34:02;;;;;;;12.50;6.93;;;;;;;-145.63;32.82;38965.56;5012357;28;20029;-61
2023/09/24 00:36:27;;;;;;;14.05;6.60;;;;;;;-145.63;32.79;38955.81;5013485;28;20037;-62
2023/09/24 00:38:53;;;;;;;15.52;7.25;;;;;;;-145.63;33.29;38959.72;5025515;28;20037;-63
2023/09/24 00:41:19;;;;;;;17.85;7.22;;;;;;;-145.63;32.71;38973.41;5025764;28;20037;-63
2023/09/24 00:43:45;;;;;;;14.90;6.70;;;;;;;-145.63;33.06;38994.91;5025616;28;20026;-63
2023/09/24 00:46:11;;;;;;;13.40;7.15;;;;;;;-145.63;32.07;38942.13;5011466;28;20030;-64
2023/09/24 00:48:37;;;;;;;13.70;6.70;;;;;;;-145.63;32.97;38985.13;5015765;28;20042;-63
2023/09/24 00:51:19;;;;;;;17.08;6.82;;;;;;;-145.63;33.21;38642.91;5020175;28;20058;-63
2023/09/24 00:53:52;;;;;;;13.23;7.05;;;;;;;-145.63;33.55;38977.31;5008467;28;20022;-63
2023/09/24 00:56:19;;;;;;;15.73;6.53;;;;;;;-145.63;33.25;38969.50;5025650;28;20029;-64
2023/09/24 00:58:50;;;;;;;13.27;6.78;;;;;;;-145.63;33.96;38715.28;5025602;28;20030;-64
2023/09/24 01:01:17;;;;;;;11.35;6.50;;;;;;;-145.63;33.49;38957.75;5021727;28;20026;-64
2023/09/24 01:03:46;;;;;;;12.48;7.32;;;;;;;-145.63;34.01;38969.50;5015050;28;20369;-62
2023/09/24 01:06:13;;;;;;;14.00;6.50;;;;;;;-145.63;34.45;38985.13;5011873;28;20101;-63
2023/09/24 01:08:39;;;;;;;15.18;6.90;;;;;;;-145.63;34.16;38963.63;5022779;28;20026;-63
2023/09/24 01:11:05;;;;;;;9.43;6.70;;;;;;;-145.63;34.55;38991.00;5005490;28;20093;-63
2023/09/24 01:13:38;;;;;;;8.70;6.35;;;;;;;-145.63;34.66;38996.88;5022562;28;20029;-63
2023/09/24 01:16:06;;;;;;;15.63;7.05;;;;;;;-145.63;34.60;39000.78;5023960;28;20029;-63
2023/09/24 01:18:33;;;;;;;12.32;6.70;;;;;;;-145.63;33.87;38991.00;5016215;28;20026;-63
2023/09/24 01:21:01;;;;;;;10.57;6.70;;;;;;;-145.63;34.23;38949.94;5005310;28;20033;-63
2023/09/24 01:23:29;;;;;;;11.60;6.72;;;;;;;-145.63;34.26;39010.56;5005282;28;20336;-63
2023/09/24 01:25:56;;;;;;;13.05;7.13;;;;;;;-145.63;34.28;38973.41;5005133;28;20042;-62
2023/09/24 01:28:22;;;;;;;11.63;6.63;;;;;;;-145.63;34.69;39008.59;5033740;28;20039;-63
2023/09/24 01:30:47;;;;;;;12.90;6.80;;;;;;;-145.63;34.58;38971.44;5033810;28;20226;-62
2023/09/24 01:33:13;;;;;;;11.35;7.50;;;;;;;-145.63;34.45;38985.13;5018550;28;20052;-63
2023/09/24 01:35:39;;;;;;;16.90;7.82;;;;;;;-145.63;35.34;39012.50;5006909;28;20030;-62
2023/09/24 01:38:05;;;;;;;13.13;7.20;;;;;;;-145.63;34.68;39024.25;5024815;28;20021;-63
2023/09/24 01:40:34;;;;;;;17.52;7.10;;;;;;;-145.63;35.50;39024.25;5024852;28;20049;-63
2023/09/24 01:43:02;;;;;;;12.02;6.60;;;;;;;-145.63;35.28;39024.25;5010967;28;20094;-63
2023/09/24 01:45:28;;;;;;;13.88;6.78;;;;;;;-145.63;35.55;39028.16;5004953;28;20026;-63
2023/09/24 01:47:55;;;;;;;13.30;7.00;;;;;;;-145.63;35.74;38985.13;5008317;28;20028;-63
2023/09/24 01:50:26;;;;;;;11.20;7.22;;;;;;;-145.63;35.36;39030.13;5024539;28;20021;-63
2023/09/24 01:52:57;;;;;;;12.53;6.83;;;;;;;-145.63;35.48;39020.34;5024419;28;20022;-63
2023/09/24 01:55:27;;;;;;;11.75;6.63;;;;;;;-145.63;35.66;39008.59;5008929;28;20029;-62
2023/09/24 01:57:53;;;;;;;12.52;7.00;;;;;;;-145.63;35.42;39043.81;5004564;28;20039;-63
2023/09/24 02:00:25;;;;;;;10.30;6.38;;;;;;;-145.63;35.71;39035.97;5015569;28;20033;-63
2023/09/24 02:02:54;;;;;;;11.65;6.82;;;;;;;-145.63;35.58;39037.94;5040793;28;20089;-63
2023/09/24 02:05:20;;;;;;;8.82;6.63;;;;;;;-145.63;35.23;39034.03;5024171;28;20022;-63
2023/09/24 02:07:49;;;;;;;13.15;7.47;;;;;;;-145.63;35.68;39039.88;5006009;28;20034;-65
2023/09/24 02:10:18;;;;;;;9.95;6.03;;;;;;;-145.63;35.89;38375.03;5004317;28;20030;-65
2023/09/24 02:12:46;;;;;;;13.13;7.35;;;;;;;-145.63;36.11;39035.97;5014714;28;20164;-62
2023/09/24 02:15:18;;;;;;;14.10;7.50;;;;;;;-145.63;36.11;38891.28;5018245;28;20042;-64
2023/09/24 02:17:48;;;;;;;13.55;7.85;;;;;;;-145.63;36.29;39080.97;5006520;28;20175;-63
2023/09/24 02:20:32;;;;;;;10.32;6.78;;;;;;;-145.63;36.08;39098.56;5024211;28;20318;-63
2023/09/24 02:23:01;;;;;;;12.63;7.25;;;;;;;-145.63;36.39;39035.97;5004191;28;20018;-63
2023/09/24 02:25:30;;;;;;;15.82;6.97;;;;;;;-145.63;36.44;39125.94;5019672;28;20038;-64
2023/09/24 02:27:59;;;;;;;16.60;6.77;;;;;;;-145.63;36.60;39024.25;5012408;28;20337;-63
2023/09/24 02:30:29;;;;;;;11.63;7.25;;;;;;;-145.63;36.96;39012.50;5011336;28;20033;-63
2023/09/24 02:32:57;;;;;;;;;;;;;;;-145.63;36.50;39020.34;5008895;28;20279;-64
2023/09/24 02:35:24;;;;;;;12.25;7.18;;;;;;;-145.63;36.41;39018.38;5004104;28;19909;-64
2023/09/24 02:38:10;;;;;;;11.30;6.95;;;;;;;-145.63;36.54;39020.34;5016370;28;20030;-63
2023/09/24 02:40:35;;;;;;;13.88;7.70;;;;;;;-145.63;36.66;39047.72;5020792;28;20029;-63
2023/09/24 02:43:03;;;;;;;10.93;7.70;;;;;;;-145.63;36.25;39032.06;5011959;28;20088;-63
2023/09/24 02:45:30;;;;;;;14.07;7.03;;;;;;;-145.63;36.58;39014.47;5015387;28;20314;-63
2023/09/24 02:47:56;;;;;;;12.43;6.80;;;;;;;-145.63;36.89;39043.81;5020626;28;20322;-63
2023/09/24 02:50:25;;;;;;;12.85;7.25;;;;;;;-145.63;37.22;39045.75;5004186;28;20026;-64
2023/09/24 02:52:59;;;;;;;15.82;7.38;;;;;;;-145.63;37.22;39043.81;5022650;28;20358;-64
2023/09/24 02:55:27;;;;;;;10.35;6.57;;;;;;;-145.63;37.29;39041.84;5008383;28;20049;-64
2023/09/24 02:57:54;;;;;;;19.23;7.63;;;;;;;-145.63;36.97;39032.06;5014743;28;20026;-63
2023/09/24 03:00:41;;;;;;;13.82;7.05;;;;;;;-145.63;37.32;39110.28;5021220;28;20306;-63
2023/09/24 03:03:09;;;;;;;13.55;6.93;;;;;;;-145.63;37.44;39041.84;5018651;28;20042;-62
2023/09/24 03:05:36;;;;;;;17.48;8.82;;;;;;;-145.63;37.38;39110.28;5015699;28;20042;-63
2023/09/24 03:08:03;;;;;;;11.65;7.22;;;;;;;-145.63;36.90;39022.28;5029637;28;20329;-63
2023/09/24 03:10:31;;;;;;;11.52;7.18;;;;;;;-145.63;37.24;39047.72;5027543;28;20093;-62
2023/09/24 03:12:57;;;;;;;12.30;7.32;;;;;;;-145.63;36.71;39077.06;5011933;28;20061;-63
2023/09/24 03:15:26;;;;;;;11.60;7.15;;;;;;;-145.63;37.37;39071.19;5010104;28;20061;-64
2023/09/24 03:17:53;;;;;;;16.67;7.72;;;;;;;-145.63;37.48;39090.75;5020910;28;20206;-63
2023/09/24 03:20:19;;;;;;;11.35;7.40;;;;;;;-145.63;37.91;39069.22;5008311;28;20037;-62
2023/09/24 03:22:57;;;;;;;10.43;6.95;;;;;;;-145.63;38.32;39055.53;5023603;28;20072;-62
2023/09/24 03:25:27;;;;;;;12.32;7.63;;;;;;;-145.63;37.64;39059.44;5008516;28;20038;-64
2023/09/24 03:27:56;;;;;;;13.02;7.40;;;;;;;-145.63;38.15;39088.78;5003406;28;20044;-63
2023/09/24 03:30:22;;;;;;;15.00;7.57;;;;;;;-145.63;37.90;39059.44;5009638;28;20281;-64
2023/09/24 03:32:51;;;;;;;12.57;7.63;;;;;;;-145.63;37.99;39039.88;5021135;28;20026;-62
2023/09/24 03:35:21;;;;;;;14.90;7.45;;;;;;;-145.63;38.11;39090.75;5003295;28;20030;-63
2023/09/24 03:37:47;;;;;;;14.40;7.55;;;;;;;-145.63;38.37;39063.34;5021648;28;20026;-63
2023/09/24 03:40:16;;;;;;;11.43;7.05;;;;;;;-145.63;38.24;39075.09;5023286;28;20033;-63
2023/09/24 03:42:43;;;;;;;16.45;8.05;;;;;;;-145.63;38.05;39051.63;5019966;28;20333;-63
2023/09/24 03:45:11;;;;;;;12.93;6.88;;;;;;;-145.63;37.83;39055.53;5011754;28;20288;-63
2023/09/24 03:47:38;;;;;;;15.98;7.47;;;;;;;-145.63;37.73;39094.66;5002978;28;20218;-62
2023/09/24 03:50:05;;;;;;;14.60;7.78;;;;;;;-145.63;37.71;39082.91;5004171;28;20053;-63
2023/09/24 03:52:32;;;;;;;11.30;7.00;;;;;;;-145.63;38.03;39096.59;5006886;28;20034;-63
2023/09/24 03:54:59;;;;;;;14.95;7.72;;;;;;;-145.63;38.00;39082.91;5017902;28;20022;-63
2023/09/24 03:57:29;;;;;;;13.13;7.43;;;;;;;-145.63;38.09;39053.59;5020974;28;20096;-63
2023/09/24 03:59:55;;;;;;;9.80;6.57;;;;;;;-145.63;37.91;39075.09;5023119;28;20030;-64
2023/09/24 04:02:22;;;;;;;12.27;7.13;;;;;;;-145.63;38.22;39082.91;5019194;28;20041;-63
2023/09/24 04:04:47;;;;;;;9.98;7.03;;;;;;;-145.63;38.59;39075.09;5012859;28;20053;-64
2023/09/24 04:07:15;;;;;;;18.08;8.32;;;;;;;-145.63;38.28;39057.50;5010870;28;20050;-64
2023/09/24 04:09:42;;;;;;;14.60;7.63;;;;;;;-145.63;38.78;39102.47;5019808;28;20042;-64
2023/09/24 04:12:08;;;;;;;12.32;7.32;;;;;;;-145.63;38.93;39096.59;5022026;28;20097;-63
2023/09/24 04:14:35;;;;;;;16.95;7.93;;;;;;;-145.63;38.49;39094.66;5006633;28;20034;-63
2023/09/24 04:17:02;;;;;;;18.20;8.70;;;;;;;-145.63;38.93;39106.38;5006350;28;20026;-64
2023/09/24 04:19:29;;;;;;;12.20;7.63;;;;;;;-145.63;39.26;39067.28;5021351;28;20361;-64
2023/09/24 04:21:55;;;;;;;15.63;7.70;;;;;;;-145.63;38.62;39092.69;5015704;28;20054;-63
2023/09/24 04:24:21;;;;;;;11.25;7.47;;;;;;;-145.63;38.92;39082.91;5012060;28;20079;-63
2023/09/24 04:26:47;;;;;;;11.80;7.88;;;;;;;-145.63;38.72;39075.09;5024784;28;20400;-63
2023/09/24 04:29:15;;;;;;;13.98;8.15;;;;;;;-145.63;39.00;39071.19;5006512;28;20038;-63
2023/09/24 04:31:42;;;;;;;9.95;7.70;;;;;;;-145.63;38.55;39088.78;5022723;28;20294;-61
2023/09/24 04:34:09;;;;;;;13.82;7.97;;;;;;;-145.63;39.56;39080.97;5013773;28;20049;-63
2023/09/24 04:36:35;;;;;;;12.00;7.90;;;;;;;-145.63;38.73;39079.00;5013489;28;20048;-63
2023/09/24 04:39:03;;;;;;;17.05;8.05;;;;;;;-145.63;39.55;39096.59;5025894;28;20333;-63
2023/09/24 04:41:29;;;;;;;13.05;8.35;;;;;;;-145.63;39.56;39096.59;5025794;28;20045;-63
2023/09/24 04:43:54;;;;;;;15.15;7.65;;;;;;;-145.63;39.81;39106.38;5007820;28;20039;-63
2023/09/24 04:46:20;;;;;;;14.48;8.23;;;;;;;-145.63;39.65;39071.19;5006013;28;20039;-64
2023/09/24 04:48:46;;;;;;;12.40;8.02;;;;;;;-145.63;38.61;39057.50;5013691;28;20032;-64
2023/09/24 04:51:11;;;;;;;17.27;8.52;;;;;;;-145.63;38.67;39069.22;5021140;28;20030;-64
2023/09/24 04:53:39;;;;;;;13.15;8.20;;;;;;;-145.63;38.39;39075.09;5005882;28;20037;-64
2023/09/24 04:56:07;;;;;;;14.23;8.15;;;;;;;-145.63;38.37;39079.00;5025279;28;20069;-64
2023/09/24 04:58:34;;;;;;;13.68;8.98;;;;;;;-145.63;37.96;39057.50;5010436;28;20089;-64
2023/09/24 05:01:07;;;;;;;17.30;9.00;;;;;;;-145.63;38.01;39055.53;5015780;28;20021;-63
2023/09/24 05:03:35;;;;;;;15.52;8.73;;;;;;;-145.63;38.43;39039.88;5017219;28;20018;-64
2023/09/24 05:06:03;;;;;;;14.65;8.35;;;;;;;-145.63;38.06;39037.94;5018892;28;20041;-63
2023/09/24 05:08:29;;;;;;;14.30;8.02;;;;;;;-145.63;38.79;39030.13;5025332;28;20033;-64
2023/09/24 05:10:55;;;;;;;12.57;8.18;;;;;;;-145.63;38.18;39020.34;5007182;28;20348;-63
2023/09/24 05:13:21;;;;;;;13.70;8.32;;;;;;;-145.63;39.19;39104.44;5018629;28;20034;-64
2023/09/24 05:15:51;;;;;;;13.65;8.00;;;;;;;-145.63;39.11;39028.16;5012805;28;20089;-63
2023/09/24 05:18:17;;;;;;;10.88;7.82;;;;;;;-145.63;38.61;39055.53;5013315;28;20066;-63
2023/09/24 05:20:43;;;;;;;12.07;7.88;;;;;;;-145.63;39.23;39059.44;5019999;28;20093;-64
2023/09/24 05:23:08;;;;;;;17.00;9.07;;;;;;;-145.63;39.24;39053.59;5005157;28;20022;-64
2023/09/24 05:25:36;;;;;;;18.73;8.32;;;;;;;-145.63;39.54;39061.41;5015843;28;20026;-63
2023/09/24 05:28:03;;;;;;;16.27;9.15;;;;;;;-145.63;39.33;39032.06;5005180;28;20354;-64
2023/09/24 05:30:28;;;;;;;16.60;8.77;;;;;;;-145.63;38.91;39051.63;5005109;28;20030;-64
2023/09/24 05:32:54;;;;;;;23.25;9.23;;;;;;;-145.63;39.22;39045.75;5005362;28;20299;-64
2023/09/24 05:35:22;;;;;;;15.63;8.48;;;;;;;-145.63;38.99;39037.94;5023698;28;20037;-65
2023/09/24 05:37:48;;;;;;;16.00;8.65;;;;;;;-145.63;38.71;39039.88;5007962;28;20073;-64
2023/09/24 05:40:14;;;;;;;13.43;8.45;;;;;;;-145.63;38.78;39020.34;5020961;28;20033;-64
2023/09/24 05:42:41;;;;;;;16.33;9.10;;;;;;;-145.63;38.52;39010.56;5027102;28;20306;-64
2023/09/24 05:45:07;;;;;;;18.70;9.73;;;;;;;-145.63;37.27;39030.13;5013752;28;20030;-64
2023/09/24 05:47:33;;;;;;;15.23;8.57;;;;;;;-145.63;37.65;39016.44;5019955;28;20053;-64
2023/09/24 05:49:59;;;;;;;13.10;8.23;;;;;;;-145.63;37.60;39047.72;5006216;28;20377;-64
2023/09/24 05:52:25;;;;;;;15.20;8.60;;;;;;;-145.63;38.71;39018.38;5004710;28;20030;-64
2023/09/24 05:54:51;;;;;;;11.73;8.00;;;;;;;-145.63;38.31;39020.34;5005095;28;20142;-64
2023/09/24 05:57:17;;;;;;;14.98;8.00;;;;;;;-145.63;37.73;38987.09;5004498;28;20034;-64
2023/09/24 05:59:43;;;;;;;13.32;7.82;;;;;;;-145.63;37.59;39035.97;5004368;28;20030;-64
2023/09/24 06:02:10;;;;;;;13.50;9.15;;;;;;;-145.63;37.33;38961.66;5043186;28;20033;-64
2023/09/24 06:04:36;;;;;;;15.90;8.30;;;;;;;-145.63;36.56;38906.91;5023307;28;20078;-64
2023/09/24 06:07:02;;;;;;;15.65;9.05;;;;;;;-145.63;36.08;38920.59;5006972;28;20037;-63
2023/09/24 06:09:28;;;;;;;15.75;8.20;;;;;;;-145.63;36.06;38895.19;5007957;28;20038;-64
2023/09/24 06:11:55;;;;;;;13.85;7.47;;;;;;;-145.63;35.87;38824.78;5006252;28;20295;-64
2023/09/24 06:14:21;;;;;;;18.92;8.30;;;;;;;-145.63;34.68;38826.72;5024158;28;20279;-63
2023/09/24 06:16:46;;;;;;;16.02;8.35;;;;;;;-145.63;35.71;38863.88;5021798;28;20037;-61
2023/09/24 06:19:13;;;;;;;13.13;8.07;;;;;;;-145.63;34.91;38797.41;5015069;28;20030;-63
2023/09/24 06:21:39;;;;;;;17.85;8.02;;;;;;;-145.63;34.84;38816.97;5018895;28;20080;-62
2023/09/24 06:24:05;;;;;;;15.95;7.93;;;;;;;-145.63;34.54;38813.03;4997222;28;20282;-62
2023/09/24 06:26:31;;;;;;;17.27;9.27;;;;;;;-145.63;34.57;38805.22;5023904;28;20038;-63
2023/09/24 06:28:57;;;;;;;15.32;7.63;;;;;;;-145.63;34.05;38793.50;5020851;28;20068;-62
2023/09/24 06:31:22;;;;;;;9.98;6.85;;;;;;;-145.63;33.59;38781.75;5020975;28;20026;-63
2023/09/24 06:33:48;;;;;;;17.05;7.57;;;;;;;-145.63;33.57;38746.56;5018457;28;20026;-64
2023/09/24 06:36:14;;;;;;;14.80;8.80;;;;;;;-145.63;33.75;38758.28;5023325;28;20368;-64
2023/09/24 06:38:39;;;;;;;21.77;11.75;;;;;;;-145.63;33.00;38674.22;5006759;28;20211;-62
2023/09/24 06:41:05;;;;;;;15.95;10.10;;;;;;;-145.63;32.51;38670.28;5022144;28;20033;-63
2023/09/24 06:43:32;;;;;;;16.65;7.18;;;;;;;-145.63;30.86;38635.09;5022495;28;20123;-62
2023/09/24 06:45:58;;;;;;;13.88;6.97;;;;;;;-145.63;30.71;38613.59;5021925;28;20029;-64
2023/09/24 06:48:24;;;;;;;17.05;6.97;;;;;;;-145.63;30.64;38613.59;5023651;28;20039;-64
2023/09/24 06:50:51;;;;;;;17.48;9.00;;;;;;;-145.63;30.54;38562.75;5014983;28;20096;-63
2023/09/24 06:53:18;;;;;;;14.05;6.80;;;;;;;-145.63;29.95;38554.94;5019483;28;20187;-64
2023/09/24 06:55:43;;;;;;;10.75;6.72;;;;;;;-145.63;30.05;38533.41;5007839;28;20030;-63
2023/09/24 06:58:09;;;;;;;15.43;6.50;;;;;;;-145.63;29.97;38556.88;5014125;28;20045;-63
2023/09/24 07:00:35;;;;;;;16.70;6.72;;;;;;;-145.63;29.91;38531.47;5023415;28;20238;-64
2023/09/24 07:03:00;;;;;;;12.98;7.22;;;;;;;-145.63;29.75;38527.56;5012566;28;20314;-63
2023/09/24 07:05:26;;;;;;;10.23;6.82;;;;;;;-145.63;30.12;38531.47;5023411;28;20322;-64
2023/09/24 07:07:52;;;;;;;15.90;7.05;;;;;;;-145.63;29.52;38558.84;5006948;28;20030;-63
2023/09/24 07:10:22;;;;;;;13.40;6.70;;;;;;;-145.63;29.27;38535.38;5015672;28;20018;-63
2023/09/24 07:12:47;;;;;;;11.07;6.65;;;;;;;-145.63;29.48;38529.50;5015532;28;20026;-62
2023/09/24 07:15:13;;;;;;;8.82;6.35;;;;;;;-145.63;29.48;38523.66;5006235;28;20042;-63
2023/09/24 07:17:39;;;;;;;15.32;6.97;;;;;;;-145.63;29.93;38566.66;5023107;28;20037;-62
2023/09/24 07:20:07;;;;;;;14.52;7.00;;;;;;;-145.63;29.69;38527.56;5018833;28;20034;-63
2023/09/24 07:22:32;;;;;;;13.75;6.68;;;;;;;-145.63;29.84;38502.13;5022828;28;20104;-63
2023/09/24 07:24:58;;;;;;;15.18;7.47;;;;;;;-145.63;29.20;38539.28;5015192;28;20034;-63
2023/09/24 07:27:24;;;;;;;15.95;8.15;;;;;;;-145.63;29.51;38500.19;5012920;28;20045;-63
2023/09/24 07:29:50;;;;;;;43.72;33.17;;;;;;;-145.63;29.35;38498.22;5046298;28;20029;-64
2023/09/24 07:32:16;;;;;;;21.80;9.48;;;;;;;-145.63;29.16;38508.00;5026773;28;20033;-64
2023/09/24 07:34:42;;;;;;;15.75;7.32;;;;;;;-145.63;28.77;38486.50;5011750;28;20184;-64
2023/09/24 07:37:08;;;;;;;12.30;7.25;;;;;;;-145.63;29.06;38490.41;5017395;28;20046;-64
2023/09/24 07:39:35;;;;;;;10.27;7.50;;;;;;;-145.63;29.07;38466.94;5026791;28;20044;-65
2023/09/24 07:42:00;;;;;;;26.48;7.40;;;;;;;-145.63;28.69;38476.72;5024085;28;20029;-65
2023/09/24 07:44:26;;;;;;;13.75;7.28;;;;;;;-145.63;29.08;38439.56;5006237;28;20048;-64
2023/09/24 07:46:53;;;;;;;15.80;7.18;;;;;;;-145.63;28.75;38468.91;5007119;28;20022;-63
2023/09/24 07:49:19;;;;;;;12.63;7.05;;;;;;;-145.63;28.84;38437.59;5018484;28;20037;-65
2023/09/24 07:51:45;;;;;;;23.25;9.73;;;;;;;-145.63;29.01;38429.78;5019606;28;20038;-64
2023/09/24 07:54:11;;;;;;;42.88;34.33;;;;;;;-145.63;29.26;38390.69;5009060;28;20026;-65
2023/09/24 07:56:42;;;;;;;15.55;8.10;;;;;;;-145.63;29.35;38378.94;5026571;28;20041;-63
2023/09/24 07:59:08;;;;;;;19.35;7.70;;;;;;;-145.63;29.24;38349.63;5007998;28;20089;-65
2023/09/24 08:01:35;;;;;;;17.05;7.97;;;;;;;-145.63;27.99;38332.03;5035618;28;20025;-66
2023/09/24 08:04:00;;;;;;;17.27;7.40;;;;;;;-145.63;28.06;38367.22;5037010;28;20033;-64
2023/09/24 08:06:29;;;;;;;11.68;6.93;;;;;;;-145.63;27.94;38347.66;5022115;28;20026;-63
2023/09/24 08:08:55;;;;;;;18.42;8.05;;;;;;;-145.63;28.16;38316.38;5006355;28;20080;-64
2023/09/24 08:11:22;;;;;;;16.33;7.72;;;;;;;-145.63;27.83;38273.38;5026300;28;20348;-63
2023/09/24 08:13:48;;;;;;;17.40;6.90;;;;;;;-145.63;27.83;38294.88;5010799;28;20042;-64
2023/09/24 08:16:14;;;;;;;13.90;7.72;;;;;;;-145.63;27.55;38341.81;5006402;28;20077;-63
2023/09/24 08:18:40;;;;;;;13.48;7.63;;;;;;;-145.63;27.73;38279.22;5012892;28;20030;-63
2023/09/24 08:21:06;;;;;;;14.38;7.82;;;;;;;-145.63;27.49;38257.72;5024174;28;20370;-64
2023/09/24 08:23:33;;;;;;;17.95;6.65;;;;;;;-145.63;27.58;38206.88;5023986;28;20069;-63
2023/09/24 08:26:01;;;;;;;12.25;7.10;;;;;;;-145.63;26.99;38191.25;5018032;28;20333;-65
2023/09/24 08:28:27;;;;;;;16.35;7.07;;;;;;;-145.63;27.06;38218.63;5018612;28;20042;-63
2023/09/24 08:30:53;;;;;;;17.02;7.00;;;;;;;-145.63;26.63;38206.88;5018068;28;20022;-63
2023/09/24 08:33:18;;;;;;;14.25;7.35;;;;;;;-145.63;26.97;38183.44;5008386;28;20026;-62
2023/09/24 08:35:44;;;;;;;14.40;7.03;;;;;;;-145.63;26.23;38158.00;5020887;28;20356;-64
2023/09/24 08:38:10;;;;;;;14.27;7.35;;;;;;;-145.63;26.34;38107.19;5006744;28;20033;-64
2023/09/24 08:40:39;;;;;;;12.20;6.50;;;;;;;-145.63;26.06;38075.91;5019675;28;20037;-63
2023/09/24 08:43:16;;;;;;;11.15;6.72;;;;;;;-145.63;26.23;38075.91;5024488;28;20195;-63
2023/09/24 08:45:42;;;;;;;12.65;7.15;;;;;;;-145.63;25.78;37968.38;5025612;28;20322;-64
2023/09/24 08:48:09;;;;;;;13.75;6.50;;;;;;;-145.63;25.99;37942.94;5024025;28;20080;-63
2023/09/24 08:50:39;;;;;;;13.23;7.20;;;;;;;-145.63;25.00;37937.09;5005866;28;20053;-63
2023/09/24 08:53:15;;;;;;;13.25;6.40;;;;;;;-145.63;25.05;37882.34;5021596;28;20225;-63
2023/09/24 08:55:46;;;;;;;12.70;7.53;;;;;;;-145.63;24.92;37876.47;5011454;28;20038;-63
2023/09/24 08:58:12;;;;;;;12.43;7.10;;;;;;;-145.63;24.77;37815.88;5015716;28;20041;-63
2023/09/24 09:00:39;;;;;;;15.07;7.65;;;;;;;-145.63;24.90;37819.78;5025459;28;20246;-63
2023/09/24 09:03:05;;;;;;;19.98;8.43;;;;;;;-145.63;24.73;37831.50;5024462;28;20032;-64
2023/09/24 09:05:35;;;;;;;11.88;7.50;;;;;;;-145.63;24.42;37804.13;5005423;28;20030;-63
2023/09/24 09:08:03;;;;;;;14.18;8.20;;;;;;;-145.63;25.03;37811.97;5022011;28;20030;-64
2023/09/24 09:10:33;;;;;;;18.27;7.72;;;;;;;-145.63;24.85;37835.41;5012930;28;20047;-63
2023/09/24 09:13:06;;;;;;;20.05;7.15;;;;;;;-145.63;25.60;37892.13;5013545;28;20044;-64
2023/09/24 09:15:33;;;;;;;13.50;8.07;;;;;;;-145.63;25.68;37823.69;5028587;28;20108;-63
2023/09/24 09:18:00;;;;;;;10.32;7.38;;;;;;;-145.63;24.70;37829.56;5035886;28;20229;-63
2023/09/24 09:20:46;;;;;;;15.52;7.70;;;;;;;-145.63;24.39;37827.59;5005535;28;20025;-63
2023/09/24 09:23:15;;;;;;;18.27;7.88;;;;;;;-145.63;24.47;37798.28;5021973;28;20298;-63
2023/09/24 09:25:54;;;;;;;15.85;7.65;;;;;;;-145.63;24.52;37810.00;5020069;28;20030;-63
2023/09/24 09:28:22;;;;;;;16.85;7.65;;;;;;;-145.63;25.63;37819.78;5022997;28;20097;-63
2023/09/24 09:31:07;;;;;;;13.73;7.50;;;;;;;-145.63;25.23;37862.78;5016961;28;20330;-62
2023/09/24 09:33:41;;;;;;;16.52;8.10;;;;;;;-145.63;24.98;37890.16;5014699;28;20023;-61
2023/09/24 09:36:20;;;;;;;19.85;9.95;;;;;;;-145.63;25.71;37837.38;5005659;28;20026;-61
2023/09/24 09:38:46;;;;;;;11.60;7.57;;;;;;;-145.63;25.07;37874.53;5020364;28;20030;-62
2023/09/24 09:41:13;;;;;;;13.55;8.65;;;;;;;-145.63;25.51;37849.09;5022435;28;20369;-63
2023/09/24 09:43:41;;;;;;;13.38;7.88;;;;;;;-145.63;25.08;37899.94;5009989;28;20056;-63
2023/09/24 09:46:10;;;;;;;15.20;8.52;;;;;;;-145.63;25.00;37854.97;5013658;28;20029;-63
2023/09/24 09:48:38;;;;;;;12.88;7.80;;;;;;;-145.63;25.17;37909.72;5021766;28;20029;-62
2023/09/24 09:51:07;;;;;;;16.65;8.18;;;;;;;-145.63;25.31;37941.00;5011421;28;20388;-62
2023/09/24 09:53:35;;;;;;;14.68;7.90;;;;;;;-145.63;25.08;37987.91;5004539;28;20102;-63
2023/09/24 09:56:04;;;;;;;15.57;8.18;;;;;;;-145.63;25.49;37106.25;5019233;28;20242;-63
2023/09/24 09:58:36;;;;;;;10.85;7.30;;;;;;;-145.63;25.19;37894.06;5005417;28;20029;-64
2023/09/24 10:01:06;;;;;;;11.98;7.72;;;;;;;-145.63;25.11;37866.69;5014285;28;20033;-62
2023/09/24 10:03:41;;;;;;;14.77;7.10;;;;;;;-145.63;25.43;37827.59;5020099;28;20030;-63
2023/09/24 10:06:09;;;;;;;13.50;7.78;;;;;;;-145.63;25.44;37897.97;5005050;28;20042;-64
2023/09/24 10:08:47;;;;;;;13.25;7.38;;;;;;;-145.63;25.06;37856.94;5022201;28;20045;-64
2023/09/24 10:11:31;;;;;;;15.25;7.70;;;;;;;-145.63;24.71;37845.19;5020072;28;20045;-64
2023/09/24 10:14:05;;;;;;;12.02;6.50;;;;;;;-145.63;24.91;37849.09;5021027;28;20026;-65
2023/09/24 10:16:38;;;;;;;13.50;7.30;;;;;;;-145.63;24.21;37827.59;5011838;28;20085;-64
2023/09/24 10:19:09;;;;;;;11.43;6.70;;;;;;;-145.63;24.89;37794.38;5012558;28;20071;-64
2023/09/24 10:21:44;;;;;;;10.93;7.03;;;;;;;-145.63;24.80;37860.84;5008477;28;20122;-64
2023/09/24 10:24:13;;;;;;;12.75;7.03;;;;;;;-145.63;24.42;37804.13;5013507;28;20310;-63
2023/09/24 10:26:50;;;;;;;14.15;7.05;;;;;;;-145.63;24.46;37847.16;5015960;28;20046;-64
2023/09/24 10:29:20;;;;;;;13.68;6.57;;;;;;;-145.63;24.36;37784.59;5015862;28;20254;-65
2023/09/24 10:32:10;;;;;;;12.73;6.63;;;;;;;-145.63;24.42;37847.16;5009694;28;20034;-65
2023/09/24 10:34:51;;;;;;;11.85;6.55;;;;;;;-145.63;24.12;37796.31;5016778;28;20060;-65
2023/09/24 10:37:18;;;;;;;16.55;6.82;;;;;;;-145.63;23.76;37858.88;5013272;28;20338;-64
2023/09/24 10:39:59;;;;;;;11.43;6.38;;;;;;;-145.63;23.91;37813.91;5009463;28;20034;-66
2023/09/24 10:42:30;;;;;;;21.70;12.30;;;;;;;-145.63;24.13;37804.13;5023141;28;20073;-64
2023/09/24 10:45:08;;;;;;;11.45;6.28;;;;;;;-145.63;23.97;37813.91;5023295;28;20310;-66
2023/09/24 10:47:43;;;;;;;13.20;6.93;;;;;;;-145.63;23.82;37770.91;5007102;28;20022;-64
2023/09/24 10:50:19;;;;;;;12.00;6.57;;;;;;;-145.63;24.08;37759.19;5020065;28;20028;-65
2023/09/24 10:52:59;;;;;;;11.13;5.95;;;;;;;-145.63;24.17;37780.69;5015547;28;20092;-65
2023/09/24 10:55:30;;;;;;;14.35;7.32;;;;;;;-145.63;24.24;37749.41;5019927;28;20046;-64
2023/09/24 10:58:02;;;;;;;11.20;5.65;;;;;;;-145.63;23.67;37745.50;5020312;28;20030;-65
2023/09/24 11:00:29;;;;;;;10.60;5.57;;;;;;;-145.63;23.35;37772.84;5024212;28;20025;-65
2023/09/24 11:02:57;;;;;;;13.82;6.10;;;;;;;-145.63;23.54;37780.69;5023096;28;20775;-64
2023/09/24 11:05:23;;;;;;;12.10;5.65;;;;;;;-145.63;23.33;37755.25;5014245;28;20089;-65
2023/09/24 11:07:49;;;;;;;10.45;6.13;;;;;;;-145.63;23.72;37745.50;5009334;28;20211;-64
2023/09/24 11:10:18;;;;;;;13.32;6.00;;;;;;;-145.63;23.42;37761.13;5013823;28;20056;-65
2023/09/24 11:12:56;;;;;;;16.92;6.90;;;;;;;-145.63;23.61;37817.81;5014696;28;20060;-65
2023/09/24 11:15:25;;;;;;;10.65;6.55;;;;;;;-145.63;23.77;37735.72;5007827;28;20077;-65